Time;durP1;ratioP1;P1;durP2;ratioP2;P2;SDS_P1;SDS_P2;PMS_P1;PMS_P2;Temp;Humidity;BMP_temperature;BMP_pressure;BME280_temperature;BME280_humidity;BME280_pressure;Samples;Min_cycle;Max_cycle;Signal;HPM_P1;HPM_P2
2023/09/26 00:01:28;;;;;;;;;;;;;;;14.38;45.11;101525.72;4941597;28;98447;-62
2023/09/26 00:03:54;;;;;;;;;;;;;;;14.35;45.36;101522.75;4958971;28;99380;-61
2023/09/26 00:06:21;;;;;;;;;;;;;;;14.32;45.18;101517.84;4944552;28;99627;-62
2023/09/26 00:08:47;;;;;;;;;;;;;;;14.27;45.36;101515.94;4946714;28;105586;-62
2023/09/26 00:11:13;;;;;;;;;;;;;;;14.24;44.95;101511.84;4928666;28;98757;-62
2023/09/26 00:13:39;;;;;;;;;;;;;;;14.21;45.30;101506.94;4945097;28;97933;-56
2023/09/26 00:16:06;;;;;;;;;;;;;;;14.19;45.08;101516.44;4963760;28;97886;-62
2023/09/26 00:18:32;;;;;;;;;;;;;;;14.16;45.29;101514.25;4962650;28;99827;-56
2023/09/26 00:20:59;;;;;;;;;;;;;;;14.13;45.11;101512.09;4962019;28;99090;-62
2023/09/26 00:23:25;;;;;;;;;;;;;;;14.11;45.01;101523.19;4931410;28;98081;-56
2023/09/26 00:25:51;;;;;;;;;;;;;;;14.08;45.38;101522.91;4934883;28;98129;-56
2023/09/26 00:28:17;;;;;;;;;;;;;;;14.08;45.20;101522.91;4968309;28;98133;-56
2023/09/26 00:30:43;;;;;;;;;;;;;;;14.06;45.45;101509.59;4947795;28;98175;-62
2023/09/26 00:33:10;;;;;;;;;;;;;;;14.05;45.06;101513.41;4963140;28;99689;-61
2023/09/26 00:35:36;;;;;;;;;;;;;;;14.04;45.36;101511.78;4948211;28;98155;-61
2023/09/26 00:38:02;;;;;;;;;;;;;;;14.02;45.46;101505.78;4977463;27;98290;-56
2023/09/26 00:40:28;;;;;;;;;;;;;;;14.00;45.10;101513.41;4963592;28;99770;-56
2023/09/26 00:42:54;;;;;;;;;;;;;;;13.98;45.13;101504.69;4964202;28;98497;-56
2023/09/26 00:45:20;;;;;;;;;;;;;;;13.98;45.30;101508.22;4926900;28;98052;-61
2023/09/26 00:47:46;;;;;;;;;;;;;;;13.98;45.32;101508.22;4962985;28;98232;-61
2023/09/26 00:50:12;;;;;;;;;;;;;;;13.96;45.19;101513.09;4943371;28;100686;-61
2023/09/26 00:52:43;;;;;;;;;;;;;;;13.95;45.46;101516.06;4944592;28;98034;-62
2023/09/26 00:55:09;;;;;;;;;;;;;;;13.92;45.43;101514.72;4935089;28;98047;-61
2023/09/26 00:57:35;;;;;;;;;;;;;;;13.91;45.31;101515.81;4962014;28;104493;-56
2023/09/26 01:00:06;;;;;;;;;;;;;;;13.89;45.16;101509.00;4962103;28;98104;-62
2023/09/26 01:02:32;;;;;;;;;;;;;;;13.87;45.26;101498.44;4966648;28;98335;-56
2023/09/26 01:04:58;;;;;;;;;;;;;;;13.87;45.09;101505.72;4947927;28;98045;-56
2023/09/26 01:07:25;;;;;;;;;;;;;;;13.84;45.26;101506.28;4949523;28;99409;-56
2023/09/26 01:09:51;;;;;;;;;;;;;;;13.81;45.48;101502.19;4942354;28;98358;-62
2023/09/26 01:12:17;;;;;;;;;;;;;;;13.74;45.40;101505.13;4927395;28;98718;-61
2023/09/26 01:14:43;;;;;;;;;;;;;;;13.70;45.22;101504.03;4962848;28;97886;-61
2023/09/26 01:17:09;;;;;;;;;;;;;;;13.67;45.52;101501.84;4974588;27;98064;-56
2023/09/26 01:19:35;;;;;;;;;;;;;;;13.63;45.35;101495.31;4961830;28;98570;-56
2023/09/26 01:22:02;;;;;;;;;;;;;;;13.60;45.57;101505.88;4944166;28;97902;-56
2023/09/26 01:24:28;;;;;;;;;;;;;;;13.57;45.41;101504.50;4976340;27;98104;-56
2023/09/26 01:26:55;;;;;;;;;;;;;;;13.54;45.37;101505.03;4965029;28;99477;-60
2023/09/26 01:29:21;;;;;;;;;;;;;;;13.53;45.19;101503.41;4971773;27;98554;-62
2023/09/26 01:31:47;;;;;;;;;;;;;;;13.51;45.38;101500.94;4929717;28;98182;-56
2023/09/26 01:34:13;;;;;;;;;;;;;;;13.50;45.24;101501.22;4923759;28;97988;-61
2023/09/26 01:36:39;;;;;;;;;;;;;;;13.49;45.61;101503.09;4944497;28;126290;-61
2023/09/26 01:39:05;;;;;;;;;;;;;;;13.48;45.25;101506.91;4961190;28;115206;-62
2023/09/26 01:41:32;;;;;;;;;;;;;;;13.46;45.41;101505.53;4946478;28;98524;-62
2023/09/26 01:43:58;;;;;;;;;;;;;;;13.43;45.67;101503.31;4972758;27;98186;-61
2023/09/26 01:46:25;;;;;;;;;;;;;;;13.39;45.40;101503.03;4974315;27;99121;-61
2023/09/26 01:48:51;;;;;;;;;;;;;;;13.36;45.58;101503.56;4927643;28;98493;-56
2023/09/26 01:51:17;;;;;;;;;;;;;;;13.35;45.61;101506.53;4958262;28;128825;-61
2023/09/26 01:53:43;;;;;;;;;;;;;;;13.32;45.58;101507.03;4957717;28;98793;-56
2023/09/26 01:56:09;;;;;;;;;;;;;;;13.30;45.30;101501.91;4943112;28;98463;-56
2023/09/26 01:58:35;;;;;;;;;;;;;;;13.27;45.61;101499.69;4961813;28;99344;-56
2023/09/26 02:01:01;;;;;;;;;;;;;;;13.25;45.65;101494.56;4961917;28;113878;-61
2023/09/26 02:03:27;;;;;;;;;;;;;;;13.24;45.64;101497.50;4940570;28;98291;-61
2023/09/26 02:05:57;;;;;;;;;;;;;;;13.23;45.50;101493.19;4928069;28;97980;-62
2023/09/26 02:08:23;;;;;;;;;;;;;;;13.21;45.67;101498.84;4960285;28;98295;-62
2023/09/26 02:10:49;;;;;;;;;;;;;;;13.20;45.63;101493.66;4945057;28;98421;-56
2023/09/26 02:13:15;;;;;;;;;;;;;;;13.18;45.46;101496.63;4938570;28;98429;-57
2023/09/26 02:15:41;;;;;;;;;;;;;;;13.15;45.39;101490.91;4963135;28;98121;-63
2023/09/26 02:18:07;;;;;;;;;;;;;;;13.13;45.59;101495.78;4976338;27;98359;-62
2023/09/26 02:20:34;;;;;;;;;;;;;;;13.11;45.53;101496.03;4948786;28;98062;-62
2023/09/26 02:23:00;;;;;;;;;;;;;;;13.09;45.82;101497.38;4927455;28;99434;-57
2023/09/26 02:25:27;;;;;;;;;;;;;;;13.07;45.53;101494.91;4958364;28;98102;-62
2023/09/26 02:27:53;;;;;;;;;;;;;;;13.05;45.60;101488.13;4959484;28;99078;-62
2023/09/26 02:30:27;;;;;;;;;;;;;;;13.05;45.71;101498.94;4945689;28;98687;-59
2023/09/26 02:32:52;;;;;;;;;;;;;;;13.01;45.51;101485.16;4945246;28;98211;-60
2023/09/26 02:35:21;;;;;;;;;;;;;;;12.98;45.70;101488.38;4946515;28;111864;-56
2023/09/26 02:37:47;;;;;;;;;;;;;;;12.93;45.51;101496.41;4954031;28;98346;-58
2023/09/26 02:40:13;;;;;;;;;;;;;;;12.91;45.67;101487.75;4961548;28;98297;-56
2023/09/26 02:42:40;;;;;;;;;;;;;;;12.87;45.54;101498.28;4944421;28;99715;-61
2023/09/26 02:45:07;;;;;;;;;;;;;;;12.84;45.77;101504.19;4926875;28;98207;-56
2023/09/26 02:47:33;;;;;;;;;;;;;;;12.82;45.75;101498.25;4935433;28;97926;-61
2023/09/26 02:50:00;;;;;;;;;;;;;;;12.81;45.52;101501.19;4926619;28;98788;-56
2023/09/26 02:52:26;;;;;;;;;;;;;;;12.78;45.66;101489.81;4946096;28;98834;-56
2023/09/26 02:54:52;;;;;;;;;;;;;;;12.77;45.69;101495.47;4928829;28;98460;-56
2023/09/26 02:57:18;;;;;;;;;;;;;;;12.75;45.64;101503.06;4962158;28;113294;-61
2023/09/26 02:59:44;;;;;;;;;;;;;;;12.69;45.78;101495.94;4961783;28;98630;-61
2023/09/26 03:02:11;;;;;;;;;;;;;;;12.66;45.77;101491.06;4961233;28;98913;-56
2023/09/26 03:04:37;;;;;;;;;;;;;;;12.64;45.65;101487.78;4958724;28;97937;-61
2023/09/26 03:07:03;;;;;;;;;;;;;;;12.62;45.87;101490.75;4965297;28;99636;-61
2023/09/26 03:09:31;;;;;;;;;;;;;;;12.62;45.76;101488.06;4944766;28;98939;-57
2023/09/26 03:11:57;;;;;;;;;;;;;;;12.62;45.86;101495.38;4947465;28;98591;-57
2023/09/26 03:14:23;;;;;;;;;;;;;;;12.60;45.70;101484.78;4965578;28;98093;-61
2023/09/26 03:16:49;;;;;;;;;;;;;;;12.58;45.73;101492.34;4931683;28;98894;-56
2023/09/26 03:19:17;;;;;;;;;;;;;;;12.56;45.84;101477.44;4931561;28;100578;-61
2023/09/26 03:21:43;;;;;;;;;;;;;;;12.55;45.78;101486.63;4981589;27;98045;-56
2023/09/26 03:24:10;;;;;;;;;;;;;;;12.51;45.61;101480.91;4964773;28;98499;-60
2023/09/26 03:26:36;;;;;;;;;;;;;;;12.48;45.87;101484.13;4961360;28;98494;-55
2023/09/26 03:29:02;;;;;;;;;;;;;;;12.47;45.73;101485.19;4959384;28;98642;-55
2023/09/26 03:31:28;;;;;;;;;;;;;;;12.42;45.85;101485.16;4963831;28;98291;-61
2023/09/26 03:33:54;;;;;;;;;;;;;;;12.40;45.89;101474.56;4965112;28;99565;-55
2023/09/26 03:36:20;;;;;;;;;;;;;;;12.40;45.72;101481.88;4943879;28;102841;-61
2023/09/26 03:38:47;;;;;;;;;;;;;;;12.36;45.89;101470.75;4950727;28;117800;-61
2023/09/26 03:41:13;;;;;;;;;;;;;;;12.33;45.84;101473.97;4923658;28;98568;-61
2023/09/26 03:43:39;;;;;;;;;;;;;;;12.30;45.77;101474.50;4943540;28;98775;-56
2023/09/26 03:46:06;;;;;;;;;;;;;;;12.29;45.79;101473.66;4961016;28;99012;-62
2023/09/26 03:48:33;;;;;;;;;;;;;;;12.27;45.64;101470.41;4948742;28;98872;-56
2023/09/26 03:51:19;;;;;;;;;;;;;;;12.26;45.71;101478.75;4958631;28;98137;-55
2023/09/26 03:53:45;;;;;;;;;;;;;;;12.24;45.72;101476.31;4961390;27;129419;-56
2023/09/26 03:56:11;;;;;;;;;;;;;;;12.22;45.76;101466.81;4973406;27;100778;-56
2023/09/26 03:58:37;;;;;;;;;;;;;;;12.21;45.79;101468.69;4964684;28;98546;-56
2023/09/26 04:01:16;;;;;;;;;;;;;;;12.20;45.72;101471.66;4960266;28;98181;-56
2023/09/26 04:03:43;;;;;;;;;;;;;;;12.19;45.62;101472.75;4963222;28;98008;-56
2023/09/26 04:06:10;;;;;;;;;;;;;;;12.17;45.70;101462.16;4963560;28;98030;-61
2023/09/26 04:08:36;;;;;;;;;;;;;;;12.17;45.58;101464.06;4964436;28;99887;-61
2023/09/26 04:11:02;;;;;;;;;;;;;;;12.16;45.73;101455.13;4948864;28;98055;-61
2023/09/26 04:13:28;;;;;;;;;;;;;;;12.15;45.91;101461.63;4924954;28;100741;-61
2023/09/26 04:15:54;;;;;;;;;;;;;;;12.15;45.94;101455.41;4957760;28;98495;-56
2023/09/26 04:18:22;;;;;;;;;;;;;;;12.15;45.74;101456.22;4929756;28;99041;-61
2023/09/26 04:20:49;;;;;;;;;;;;;;;12.15;45.88;101456.22;4962742;28;98238;-56
2023/09/26 04:23:15;;;;;;;;;;;;;;;12.16;45.77;101455.13;4973252;27;99578;-56
2023/09/26 04:25:41;;;;;;;;;;;;;;;12.16;45.73;101448.91;4941356;28;98831;-56
2023/09/26 04:28:07;;;;;;;;;;;;;;;12.16;45.78;101438.91;4962895;28;98077;-55
2023/09/26 04:30:38;;;;;;;;;;;;;;;12.15;46.06;101441.88;4947505;28;116347;-56
2023/09/26 04:33:06;;;;;;;;;;;;;;;12.14;45.92;101446.44;4975115;27;98460;-61
2023/09/26 04:35:32;;;;;;;;;;;;;;;12.12;45.83;101443.22;4931250;28;98338;-61
2023/09/26 04:37:58;;;;;;;;;;;;;;;12.11;45.60;101452.38;4951175;28;98026;-61
2023/09/26 04:40:24;;;;;;;;;;;;;;;12.10;46.00;101447.22;4942949;28;98106;-61
2023/09/26 04:42:51;;;;;;;;;;;;;;;12.10;45.77;101447.22;4933671;28;99791;-61
2023/09/26 04:45:17;;;;;;;;;;;;;;;12.11;45.97;101456.97;4976667;27;97937;-61
2023/09/26 04:47:44;;;;;;;;;;;;;;;12.11;45.69;101444.28;4974025;27;109854;-61
2023/09/26 04:50:10;;;;;;;;;;;;;;;12.11;45.54;101441.59;4946799;28;98908;-55
2023/09/26 04:52:36;;;;;;;;;;;;;;;12.10;45.93;101439.94;4962267;28;114041;-55
2023/09/26 04:55:03;;;;;;;;;;;;;;;12.10;45.81;101439.94;4960556;28;98457;-61
2023/09/26 04:57:28;;;;;;;;;;;;;;;12.09;45.83;101437.50;4965190;28;102824;-61
2023/09/26 04:59:55;;;;;;;;;;;;;;;12.08;45.91;101446.66;4932286;28;98140;-56
2023/09/26 05:02:21;;;;;;;;;;;;;;;12.09;45.70;101443.72;4962628;28;99492;-56
2023/09/26 05:04:48;;;;;;;;;;;;;;;12.10;45.52;101448.03;4939055;28;98930;-61
2023/09/26 05:07:15;;;;;;;;;;;;;;;12.12;45.73;101442.38;4963886;28;99490;-56
2023/09/26 05:09:41;;;;;;;;;;;;;;;12.12;45.67;101454.00;4960710;28;98186;-56
2023/09/26 05:12:07;;;;;;;;;;;;;;;12.14;45.79;101446.44;4978482;27;99189;-56
2023/09/26 05:14:33;;;;;;;;;;;;;;;12.16;45.58;101443.50;4962735;28;107128;-61
2023/09/26 05:16:59;;;;;;;;;;;;;;;12.18;45.70;101447.59;4962074;28;98109;-55
2023/09/26 05:19:25;;;;;;;;;;;;;;;12.18;45.70;101453.00;4960125;28;98653;-61
2023/09/26 05:21:51;;;;;;;;;;;;;;;12.19;45.46;101449.22;4958095;28;98542;-55
2023/09/26 05:24:17;;;;;;;;;;;;;;;12.20;45.57;101450.84;4970062;28;98240;-56
2023/09/26 05:26:44;;;;;;;;;;;;;;;12.21;45.55;101454.38;4960709;28;98168;-61
2023/09/26 05:29:10;;;;;;;;;;;;;;;12.21;45.61;101455.19;4963610;28;102220;-56
2023/09/26 05:31:36;;;;;;;;;;;;;;;12.23;45.55;101454.94;4940622;28;98620;-61
2023/09/26 05:34:03;;;;;;;;;;;;;;;12.23;45.51;101455.75;4973015;27;99262;-61
2023/09/26 05:36:29;;;;;;;;;;;;;;;12.28;45.69;101465.81;4973374;27;98457;-61
2023/09/26 05:38:55;;;;;;;;;;;;;;;12.37;45.50;101461.56;4959529;28;98199;-61
2023/09/26 05:41:21;;;;;;;;;;;;;;;12.48;45.49;101454.38;4947412;28;99033;-60
2023/09/26 05:43:47;;;;;;;;;;;;;;;12.56;45.38;101464.72;4962248;28;98015;-55
2023/09/26 05:46:13;;;;;;;;;;;;;;;12.63;45.52;101451.00;4942354;28;98152;-61
2023/09/26 05:48:40;;;;;;;;;;;;;;;12.70;45.40;101460.53;4962491;28;98060;-55
2023/09/26 05:51:06;;;;;;;;;;;;;;;12.77;45.36;101468.41;4942385;28;99746;-55
2023/09/26 05:53:32;;;;;;;;;;;;;;;12.80;45.60;101462.50;4949975;28;102344;-61
2023/09/26 05:55:59;;;;;;;;;;;;;;;12.87;45.29;101465.00;4925869;28;99054;-61
2023/09/26 05:58:25;;;;;;;;;;;;;;;12.96;45.39;101463.44;4947718;28;98462;-61
2023/09/26 06:00:53;;;;;;;;;;;;;;;13.03;45.24;101464.84;4948512;28;98169;-61
2023/09/26 06:03:19;;;;;;;;;;;;;;;13.12;45.81;101457.06;4957283;27;98732;-61
2023/09/26 06:05:46;;;;;;;;;;;;;;;13.19;45.44;101459.53;4942588;28;98324;-61
2023/09/26 06:08:12;;;;;;;;;;;;;;;13.25;45.13;101463.97;4928631;28;98942;-56
2023/09/26 06:10:38;;;;;;;;;;;;;;;13.30;45.45;101469.41;4959507;28;99586;-56
2023/09/26 06:13:05;;;;;;;;;;;;;;;13.35;45.19;101464.00;4959060;27;98861;-56
2023/09/26 06:15:31;;;;;;;;;;;;;;;13.41;45.11;101464.88;4944339;28;98449;-55
2023/09/26 06:17:59;;;;;;;;;;;;;;;13.48;45.34;101462.75;4923141;28;98184;-56
2023/09/26 06:20:28;;;;;;;;;;;;;;;13.57;45.22;101454.94;4970010;27;99077;-61
2023/09/26 06:22:54;;;;;;;;;;;;;;;13.63;45.29;101457.38;4941093;28;99972;-61
2023/09/26 06:25:23;;;;;;;;;;;;;;;13.69;44.98;101455.53;4947108;28;98105;-61
2023/09/26 06:27:51;;;;;;;;;;;;;;;13.79;45.16;101457.47;4930366;28;98230;-61
2023/09/26 06:30:18;;;;;;;;;;;;;;;13.89;44.89;101452.09;4964468;28;98381;-56
2023/09/26 06:32:44;;;;;;;;;;;;;;;14.00;44.78;101451.03;4960546;28;98460;-61
2023/09/26 06:35:10;;;;;;;;;;;;;;;14.07;44.78;101454.31;4958009;28;118172;-55
2023/09/26 06:37:36;;;;;;;;;;;;;;;14.12;45.22;101450.81;4942488;28;97974;-61
2023/09/26 06:40:06;;;;;;;;;;;;;;;14.18;44.84;101449.72;4960448;28;121302;-56
2023/09/26 06:42:32;;;;;;;;;;;;;;;14.23;45.20;101453.28;4956910;28;98138;-56
2023/09/26 06:44:59;;;;;;;;;;;;;;;14.29;44.95;101448.66;4928759;28;98129;-61
2023/09/26 06:47:28;;;;;;;;;;;;;;;14.37;45.21;101453.56;4946840;28;98801;-55
2023/09/26 06:49:55;;;;;;;;;;;;;;;14.43;44.92;101451.69;4946273;28;98743;-56
2023/09/26 06:52:24;;;;;;;;;;;;;;;14.49;45.22;101447.91;4955319;28;98945;-61
2023/09/26 06:54:50;;;;;;;;;;;;;;;14.57;44.99;101443.84;4965265;28;99089;-61
2023/09/26 06:57:20;;;;;;;;;;;;;;;14.64;44.96;101445.22;4967636;28;98241;-61
2023/09/26 06:59:52;;;;;;;;;;;;;;;14.70;45.21;101441.44;4963885;28;98276;-61
2023/09/26 07:02:19;;;;;;;;;;;;;;;14.77;45.16;101443.84;4962335;28;98624;-61
2023/09/26 07:04:46;;;;;;;;;;;;;;;14.84;44.83;101436.25;4942492;28;107365;-61
2023/09/26 07:07:12;;;;;;;;;;;;;;;14.92;44.93;101438.44;4962604;28;98483;-61
2023/09/26 07:09:39;;;;;;;;;;;;;;;15.01;44.87;101433.25;4964951;28;98306;-56
2023/09/26 07:12:06;;;;;;;;;;;;;;;15.12;44.86;101428.63;4960516;28;98665;-55
2023/09/26 07:14:32;;;;;;;;;;;;;;;15.20;44.89;101425.34;4943111;28;98359;-62
2023/09/26 07:16:59;;;;;;;;;;;;;;;15.29;44.77;101429.16;4927917;28;97983;-61
2023/09/26 07:19:32;;;;;;;;;;;;;;;15.37;44.71;101425.06;4946891;28;100406;-61
2023/09/26 07:21:58;;;;;;;;;;;;;;;15.51;44.86;101433.41;4979598;27;102546;-61
2023/09/26 07:24:25;;;;;;;;;;;;;;;15.65;44.72;101435.31;4963528;28;98633;-61
2023/09/26 07:26:51;;;;;;;;;;;;;;;15.82;44.74;101436.88;4961505;28;98141;-55
2023/09/26 07:29:18;;;;;;;;;;;;;;;16.00;44.75;101435.44;4962540;28;99238;-56
2023/09/26 07:31:45;;;;;;;;;;;;;;;16.13;44.54;101429.38;4945788;28;98648;-55
2023/09/26 07:34:12;;;;;;;;;;;;;;;16.32;44.48;101432.25;4924839;28;98250;-56
2023/09/26 07:36:38;;;;;;;;;;;;;;;16.54;44.25;101432.59;4978516;27;97968;-55
2023/09/26 07:39:05;;;;;;;;;;;;;;;16.71;43.98;101432.22;4957993;28;102663;-57
2023/09/26 07:41:31;;;;;;;;;;;;;;;16.80;44.15;101429.72;4925110;28;99454;-61
2023/09/26 07:43:58;;;;;;;;;;;;;;;16.86;44.28;101432.13;4947570;28;99198;-55
2023/09/26 07:46:24;;;;;;;;;;;;;;;16.93;44.26;101432.56;4930045;28;98511;-61
2023/09/26 07:48:51;;;;;;;;;;;;;;;17.03;44.39;101430.88;4962117;28;98484;-55
2023/09/26 07:51:17;;;;;;;;;;;;;;;17.20;44.34;101430.41;4963029;28;100977;-61
2023/09/26 07:53:43;;;;;;;;;;;;;;;17.45;44.02;101426.59;4964544;28;99216;-61
2023/09/26 07:56:10;;;;;;;;;;;;;;;17.74;43.84;101429.25;4962258;28;98183;-55
2023/09/26 07:58:36;;;;;;;;;;;;;;;18.03;43.88;101420.97;4929696;28;97833;-55
2023/09/26 08:01:06;;;;;;;;;;;;;;;18.72;43.14;101424.88;4975524;27;128103;-61
2023/09/26 08:03:33;;;;;;;;;;;;;;;18.96;43.17;101422.00;4964372;28;97973;-61
2023/09/26 08:06:00;;;;;;;;;;;;;;;19.69;42.37;101414.03;4968665;28;99543;-56
2023/09/26 08:08:26;;;;;;;;;;;;;;;20.39;42.09;101410.81;4965796;28;99783;-61
2023/09/26 08:10:52;;;;;;;;;;;;;;;21.66;40.73;101405.88;4967649;28;98112;-56
2023/09/26 08:13:18;;;;;;;;;;;;;;;23.08;39.67;101407.91;4943436;28;98766;-62
2023/09/26 08:15:44;;;;;;;;;;;;;;;24.80;38.53;101413.34;4963148;28;98930;-57
2023/09/26 08:18:10;;;;;;;;;;;;;;;26.99;36.95;101421.56;4962318;28;105655;-56
2023/09/26 08:20:36;;;;;;;;;;;;;;;27.98;36.99;101427.09;4962071;28;97969;-62
2023/09/26 08:23:02;;;;;;;;;;;;;;;27.59;38.11;101441.66;4953388;28;98251;-62
2023/09/26 08:25:28;;;;;;;;;;;;;;;27.95;37.94;101436.94;4972603;27;98621;-56
2023/09/26 08:27:54;;;;;;;;;;;;;;;31.07;35.24;101437.06;4927524;28;98429;-56
2023/09/26 08:30:20;;;;;;;;;;;;;;;33.01;34.19;101429.28;4979580;27;98776;-56
2023/09/26 08:32:47;;;;;;;;;;;;;;;34.46;33.62;101437.72;4962866;28;111539;-56
2023/09/26 08:35:13;;;;;;;;;;;;;;;35.83;33.25;101436.22;4946162;28;98700;-63
2023/09/26 08:37:42;;;;;;;;;;;;;;;36.98;33.04;101432.69;4949694;28;98227;-56
2023/09/26 08:40:11;;;;;;;;;;;;;;;37.97;32.52;101428.50;4949363;28;98116;-62
2023/09/26 08:42:39;;;;;;;;;;;;;;;38.72;32.48;101424.00;4962797;28;98566;-56
2023/09/26 08:45:06;;;;;;;;;;;;;;;39.06;32.05;101408.69;4947748;28;98217;-56
2023/09/26 08:47:33;;;;;;;;;;;;;;;39.14;32.36;101410.88;4962272;28;99835;-56
2023/09/26 08:49:59;;;;;;;;;;;;;;;38.61;32.44;101404.56;4962481;27;98974;-56
2023/09/26 08:52:26;;;;;;;;;;;;;;;37.61;33.80;101401.06;4967985;28;99690;-62
2023/09/26 08:54:52;;;;;;;;;;;;;;;36.47;34.79;101392.56;4943197;28;98173;-56
2023/09/26 08:57:19;;;;;;;;;;;;;;;35.30;35.82;101394.75;4958789;28;98392;-62
2023/09/26 08:59:48;;;;;;;;;;;;;;;34.17;36.94;101375.56;4956440;28;99652;-56
2023/09/26 09:02:15;;;;;;;;;;;;;;;33.21;38.24;101368.28;4928482;28;99180;-56
2023/09/26 09:04:44;;;;;;;;;;;;;;;32.45;38.77;101369.41;4948127;28;98828;-56
2023/09/26 09:07:11;;;;;;;;;;;;;;;31.86;39.12;101358.44;4941953;28;105529;-57
2023/09/26 09:09:37;;;;;;;;;;;;;;;31.43;39.34;101362.97;4961608;28;99883;-56
2023/09/26 09:12:21;;;;;;;;;;;;;;;31.18;39.66;101346.09;4974304;27;98279;-56
2023/09/26 09:14:47;;;;;;;;;;;;;;;30.99;39.67;101345.16;4948323;28;98051;-62
2023/09/26 09:17:13;;;;;;;;;;;;;;;30.84;39.78;101342.66;4927816;28;100100;-62
2023/09/26 09:19:46;;;;;;;;;;;;;;;30.77;39.86;101341.41;4940309;28;99637;-61
2023/09/26 09:22:17;;;;;;;;;;;;;;;30.66;39.96;101345.25;4948011;28;99543;-56
2023/09/26 09:24:43;;;;;;;;;;;;;;;30.65;40.04;101338.88;4948809;28;98248;-61
2023/09/26 09:27:09;;;;;;;;;;;;;;;30.72;39.95;101340.94;4945945;28;98154;-56
2023/09/26 09:29:40;;;;;;;;;;;;;;;30.79;40.10;101333.47;4955936;28;119201;-56
2023/09/26 09:32:07;;;;;;;;;;;;;;;30.89;39.82;101328.38;4945002;28;99165;-59
2023/09/26 09:34:34;;;;;;;;;;;;;;;30.93;39.66;101321.66;4958011;28;98229;-57
2023/09/26 09:37:00;;;;;;;;;;;;;;;30.97;39.66;101322.50;4961922;28;99830;-62
2023/09/26 09:39:26;;;;;;;;;;;;;;;31.04;40.09;101327.28;4962583;28;98046;-57
2023/09/26 09:42:01;;;;;;;;;;;;;;;31.12;39.87;101322.56;4924927;28;99039;-56
2023/09/26 09:44:27;;;;;;;;;;;;;;;31.17;39.76;101319.44;4943819;28;98621;-56
2023/09/26 09:47:01;;;;;;;;;;;;;;;31.15;39.67;101321.81;4962781;28;99514;-57
2023/09/26 09:49:28;;;;;;;;;;;;;;;31.17;39.76;101309.09;4974127;27;98327;-62
2023/09/26 09:51:56;;;;;;;;;;;;;;;31.25;39.68;101307.97;4942721;28;98270;-62
2023/09/26 09:54:22;;;;;;;;;;;;;;;31.24;39.45;101311.13;4942869;28;97986;-56
2023/09/26 09:56:48;;;;;;;;;;;;;;;31.32;39.62;101312.00;4944756;28;100413;-63
2023/09/26 09:59:15;;;;;;;;;;;;;;;31.42;39.62;101297.34;4943126;28;118107;-62
2023/09/26 10:01:44;;;;;;;;;;;;;;;31.57;39.47;101301.00;4960366;28;98848;-63
2023/09/26 10:04:13;;;;;;;;;;;;;;;31.74;39.46;101297.47;4956565;28;98092;-57
2023/09/26 10:06:40;;;;;;;;;;;;;;;31.87;39.38;101290.38;4958938;28;98492;-57
2023/09/26 10:09:06;;;;;;;;;;;;;;;32.05;39.36;101300.78;4942486;28;98906;-56
2023/09/26 10:11:33;;;;;;;;;;;;;;;32.25;38.96;101288.88;4943182;28;98262;-56
2023/09/26 10:13:59;;;;;;;;;;;;;;;32.43;38.75;101293.72;4943292;28;98007;-63
2023/09/26 10:16:25;;;;;;;;;;;;;;;32.57;39.03;101290.91;4961372;28;98885;-57
2023/09/26 10:18:51;;;;;;;;;;;;;;;32.76;39.05;101298.09;4960701;28;103525;-63
2023/09/26 10:21:25;;;;;;;;;;;;;;;33.01;38.78;101295.28;4945704;28;118853;-56
2023/09/26 10:24:09;;;;;;;;;;;;;;;33.33;38.20;101298.03;4944948;28;99652;-57
2023/09/26 10:26:38;;;;;;;;;;;;;;;33.53;38.19;101290.00;4963194;28;98464;-63
2023/09/26 10:29:11;;;;;;;;;;;;;;;33.60;38.29;101287.19;4942051;28;98040;-56
2023/09/26 10:31:41;;;;;;;;;;;;;;;33.58;38.02;101281.19;4963718;28;97863;-63
2023/09/26 10:34:07;;;;;;;;;;;;;;;33.78;38.20;101278.69;4951802;28;98142;-63
2023/09/26 10:36:34;;;;;;;;;;;;;;;33.85;37.86;101277.88;4961413;28;108635;-63
2023/09/26 10:39:05;;;;;;;;;;;;;;;33.84;38.10;101270.66;4949722;28;99480;-57
2023/09/26 10:41:32;;;;;;;;;;;;;;;33.62;38.21;101276.38;4962388;28;98338;-57
2023/09/26 10:43:58;;;;;;;;;;;;;;;33.88;38.07;101266.66;4975615;27;98151;-63
2023/09/26 10:46:25;;;;;;;;;;;;;;;33.91;38.31;101268.63;4964609;28;98356;-62
2023/09/26 10:48:51;;;;;;;;;;;;;;;33.90;38.58;101258.66;4970309;28;100522;-63
2023/09/26 10:51:20;;;;;;;;;;;;;;;34.07;38.59;101256.16;4965020;28;126099;-62
2023/09/26 10:53:46;;;;;;;;;;;;;;;34.20;38.20;101255.28;4965069;28;98448;-57
2023/09/26 10:56:13;;;;;;;;;;;;;;;34.38;37.95;101254.34;4974729;27;106238;-57
2023/09/26 10:58:40;;;;;;;;;;;;;;;34.53;38.06;101258.66;4943666;28;98252;-57
2023/09/26 11:01:08;;;;;;;;;;;;;;;34.72;37.63;101248.09;4973519;27;115760;-63
2023/09/26 11:03:34;;;;;;;;;;;;;;;35.00;37.76;101247.03;4964419;28;98281;-57
2023/09/26 11:06:00;;;;;;;;;;;;;;;35.30;37.17;101246.28;4955382;28;98402;-56
2023/09/26 11:08:27;;;;;;;;;;;;;;;35.51;37.18;101246.03;4965503;28;97876;-63
2023/09/26 11:10:53;;;;;;;;;;;;;;;35.85;37.00;101234.75;4957264;28;98217;-63
2023/09/26 11:13:20;;;;;;;;;;;;;;;36.19;36.67;101236.63;4963830;28;98480;-57
2023/09/26 11:15:46;;;;;;;;;;;;;;;36.34;36.74;101234.41;4948611;28;105277;-57
2023/09/26 11:18:12;;;;;;;;;;;;;;;36.38;36.72;101238.72;4944717;28;98348;-57
2023/09/26 11:20:42;;;;;;;;;;;;;;;36.48;36.53;101233.41;4926225;28;100122;-62
2023/09/26 11:23:08;;;;;;;;;;;;;;;36.58;36.43;101226.78;4962384;28;98333;-57
2023/09/26 11:25:34;;;;;;;;;;;;;;;36.49;36.70;101223.75;4963868;28;98709;-57
2023/09/26 11:28:01;;;;;;;;;;;;;;;36.74;36.64;101217.66;4962704;28;98514;-63
2023/09/26 11:30:27;;;;;;;;;;;;;;;36.82;37.02;101213.50;4960499;28;126924;-57
2023/09/26 11:32:56;;;;;;;;;;;;;;;36.87;36.50;101221.44;4977579;27;98264;-57
2023/09/26 11:35:23;;;;;;;;;;;;;;;36.89;36.11;101213.38;4953585;28;101362;-57
2023/09/26 11:37:52;;;;;;;;;;;;;;;36.83;36.69;101212.31;4960867;28;99830;-63
2023/09/26 11:40:26;;;;;;;;;;;;;;;36.84;36.62;101203.44;4949139;28;99320;-63
2023/09/26 11:42:55;;;;;;;;;;;;;;;36.84;36.60;101202.66;4948424;28;98266;-57
2023/09/26 11:45:28;;;;;;;;;;;;;;;36.76;36.83;101199.19;4939867;28;98198;-57
2023/09/26 11:47:56;;;;;;;;;;;;;;;36.76;36.71;101187.16;4926496;28;119279;-56
2023/09/26 11:50:22;;;;;;;;;;;;;;;36.75;37.22;101186.38;4946896;28;102373;-57
2023/09/26 11:52:48;;;;;;;;;;;;;;;36.59;37.34;101175.06;4975286;27;97804;-63
2023/09/26 11:55:22;;;;;;;;;;;;;;;36.79;37.03;101175.09;4926064;28;98184;-62
2023/09/26 11:57:51;;;;;;;;;;;;;;;35.77;37.97;101166.00;4948917;28;98290;-63
2023/09/26 12:00:20;;;;;;;;;;;;;;;35.87;37.67;101165.00;4962804;28;121527;-63
2023/09/26 12:02:50;;;;;;;;;;;;;;;35.93;37.58;101167.34;4972189;27;98320;-56
2023/09/26 12:05:20;;;;;;;;;;;;;;;35.80;38.09;101162.31;4937171;28;98240;-63
2023/09/26 12:07:50;;;;;;;;;;;;;;;35.59;38.05;101166.25;4946801;28;98102;-56
2023/09/26 12:10:16;;;;;;;;;;;;;;;35.35;38.13;101148.53;4961409;28;98899;-63
2023/09/26 12:12:42;;;;;;;;;;;;;;;35.13;38.49;101153.63;4968815;28;98317;-57
2023/09/26 12:15:27;;;;;;;;;;;;;;;34.91;38.60;101155.91;4959213;28;111711;-56
2023/09/26 12:17:54;;;;;;;;;;;;;;;34.68;38.70;101147.38;4924481;28;98135;-63
2023/09/26 12:20:21;;;;;;;;;;;;;;;34.46;38.77;101143.97;4926531;28;98699;-63
2023/09/26 12:23:08;;;;;;;;;;;;;;;34.29;38.69;101140.16;4945152;28;98115;-56
2023/09/26 12:25:35;;;;;;;;;;;;;;;34.14;39.23;101139.47;4961484;28;98336;-62
2023/09/26 12:28:00;;;;;;;;;;;;;;;34.00;38.75;101142.41;4946509;28;98326;-57
2023/09/26 12:30:27;;;;;;;;;;;;;;;33.81;39.03;101132.53;4962671;28;99246;-56
2023/09/26 12:32:53;;;;;;;;;;;;;;;33.67;39.11;101129.84;4931086;28;98341;-60
2023/09/26 12:35:19;;;;;;;;;;;;;;;33.46;38.87;101128.00;4950231;28;98432;-62